Time;durP1;ratioP1;P1;durP2;ratioP2;P2;SDS_P1;SDS_P2;PMS_P1;PMS_P2;Temp;Humidity;BMP_temperature;BMP_pressure;BME280_temperature;BME280_humidity;BME280_pressure;Samples;Min_cycle;Max_cycle;Signal;HPM_P1;HPM_P2
2023/01/02 00:01:24;;;;;;;14.25;4.88;;;;;;;12.10;81.61;100896.50;5027617;28;20022;-68
2023/01/02 00:03:49;;;;;;;11.20;5.60;;;;;;;12.13;81.62;100898.78;5027347;28;20507;-69
2023/01/02 00:06:16;;;;;;;11.65;5.00;;;;;;;12.13;81.36;100896.84;5028104;28;20033;-69
2023/01/02 00:08:41;;;;;;;11.95;5.13;;;;;;;12.14;81.63;100908.78;5016450;28;20006;-68
2023/01/02 00:11:07;;;;;;;14.23;5.13;;;;;;;12.17;81.80;100900.75;5014635;28;20163;-68
2023/01/02 00:13:32;;;;;;;10.52;5.25;;;;;;;12.13;81.66;100896.84;5012580;28;20034;-68
2023/01/02 00:15:57;;;;;;;13.43;5.22;;;;;;;12.08;82.37;100895.94;5018092;28;20117;-69
2023/01/02 00:18:23;;;;;;;9.88;5.60;;;;;;;12.11;82.10;100889.88;5026257;28;20039;-68
2023/01/02 00:20:48;;;;;;;13.43;5.50;;;;;;;12.11;82.11;100895.44;5015212;28;20033;-68
2023/01/02 00:23:13;;;;;;;10.80;5.50;;;;;;;12.09;82.13;100898.47;5025607;28;20048;-69
2023/01/02 00:25:38;;;;;;;12.35;5.30;;;;;;;12.12;81.80;100897.09;5028435;28;20033;-69
2023/01/02 00:28:04;;;;;;;9.98;5.20;;;;;;;12.14;81.83;100878.19;5023454;28;20048;-68
2023/01/02 00:30:29;;;;;;;11.77;5.05;;;;;;;12.12;82.15;100878.47;5029026;28;20481;-68
2023/01/02 00:32:54;;;;;;;12.85;5.78;;;;;;;12.11;82.01;100875.97;5028219;28;20049;-68
2023/01/02 00:35:20;;;;;;;12.95;5.78;;;;;;;12.16;81.76;100881.56;5009795;28;20022;-69
2023/01/02 00:37:45;;;;;;;13.57;5.30;;;;;;;12.16;81.83;100878.78;5024077;28;20029;-68
2023/01/02 00:40:13;;;;;;;12.07;6.13;;;;;;;12.19;81.39;100864.34;5014278;28;20018;-68
2023/01/02 00:42:40;;;;;;;10.90;5.65;;;;;;;12.21;81.66;100870.47;5008958;28;20512;-68
2023/01/02 00:45:06;;;;;;;12.63;5.82;;;;;;;12.15;81.64;100869.59;5009883;28;20034;-69
2023/01/02 00:47:32;;;;;;;12.38;6.03;;;;;;;12.17;81.33;100866.53;5010231;28;20034;-68
2023/01/02 00:49:57;;;;;;;11.85;5.53;;;;;;;12.16;81.43;100873.22;5008706;28;20474;-67
2023/01/02 00:52:22;;;;;;;10.38;5.40;;;;;;;12.18;81.30;100874.66;5024857;28;20026;-68
2023/01/02 00:54:47;;;;;;;11.70;5.22;;;;;;;12.19;81.37;100865.19;5027244;28;20029;-68
2023/01/02 00:57:13;;;;;;;12.65;5.68;;;;;;;12.22;80.85;100863.78;5027912;28;20034;-68
2023/01/02 00:59:38;;;;;;;12.80;5.35;;;;;;;12.24;81.00;100864.38;5029053;28;20033;-68
2023/01/02 01:02:03;;;;;;;7.72;4.53;;;;;;;12.24;80.62;100854.09;5028102;28;20045;-69
2023/01/02 01:04:32;;;;;;;17.00;5.00;;;;;;;12.24;80.89;100856.88;5032729;28;20032;-68
2023/01/02 01:06:57;;;;;;;10.88;5.18;;;;;;;12.24;80.56;100850.47;5031996;28;20085;-66
2023/01/02 01:09:22;;;;;;;12.38;4.97;;;;;;;12.23;80.92;100854.38;5033136;28;20022;-68
2023/01/02 01:11:48;;;;;;;8.70;4.60;;;;;;;12.22;80.74;100849.88;5029877;28;20492;-69
2023/01/02 01:14:13;;;;;;;10.93;5.40;;;;;;;12.26;80.58;100853.81;5033202;28;20029;-68
2023/01/02 01:16:38;;;;;;;8.05;4.10;;;;;;;12.26;80.54;100845.47;5025684;28;20430;-68
2023/01/02 01:19:04;;;;;;;13.35;4.90;;;;;;;12.29;80.60;100850.50;5012553;28;20029;-68
2023/01/02 01:21:29;;;;;;;9.90;4.50;;;;;;;12.31;80.95;100842.75;5020484;28;20072;-68
2023/01/02 01:23:55;;;;;;;11.70;4.80;;;;;;;12.31;81.39;100853.06;5032954;28;20830;-68
2023/01/02 01:26:21;;;;;;;10.35;4.38;;;;;;;12.32;81.21;100854.72;5031654;28;20037;-68
2023/01/02 01:28:47;;;;;;;11.43;4.53;;;;;;;12.32;81.01;100851.94;5028826;28;20103;-69
2023/01/02 01:31:15;;;;;;;13.27;4.60;;;;;;;12.34;80.90;100850.56;5026031;28;20029;-68
2023/01/02 01:33:41;;;;;;;10.50;4.40;;;;;;;12.35;81.17;100848.63;5032242;28;20155;-69
2023/01/02 01:36:13;;;;;;;11.63;4.90;;;;;;;12.34;81.58;100846.94;5032726;28;20029;-69
2023/01/02 01:38:38;;;;;;;10.20;5.07;;;;;;;12.36;81.69;100856.69;5019251;28;20419;-68
2023/01/02 01:41:04;;;;;;;11.18;4.45;;;;;;;12.34;81.84;100853.38;5012391;28;20572;-68
2023/01/02 01:44:22;;;;;;;13.90;4.85;;;;;;;12.41;81.48;100851.16;5012857;28;20481;-68
2023/01/02 01:46:47;;;;;;;12.93;4.60;;;;;;;12.38;82.04;100856.44;5008456;28;20053;-70
2023/01/02 01:49:20;;;;;;;10.07;4.18;;;;;;;12.36;82.16;100859.50;5032183;28;20037;-69
2023/01/02 01:51:57;;;;;;;10.77;4.50;;;;;;;12.35;82.48;100852.25;5031725;28;20877;-67
2023/01/02 01:54:34;;;;;;;14.30;4.50;;;;;;;12.35;83.05;100865.31;5027860;28;20052;-68
2023/01/02 01:57:06;;;;;;;11.15;4.32;;;;;;;12.35;82.85;100870.91;5024814;28;20495;-67
2023/01/02 01:59:33;;;;;;;8.02;4.32;;;;;;;12.37;82.78;100874.25;5026253;28;20033;-69
2023/01/02 02:01:59;;;;;;;9.23;4.32;;;;;;;12.38;82.96;100870.34;5025683;28;20030;-69
2023/01/02 02:04:25;;;;;;;11.15;4.32;;;;;;;12.37;83.18;100874.25;5020860;28;20088;-69
2023/01/02 02:06:51;;;;;;;12.30;4.30;;;;;;;12.38;83.24;100876.78;5026319;28;20057;-69
2023/01/02 02:09:26;;;;;;;7.75;4.13;;;;;;;12.38;83.78;100875.91;5024080;28;20033;-68
2023/01/02 02:11:54;;;;;;;8.73;4.00;;;;;;;12.38;83.36;100865.66;5024341;28;20029;-68
2023/01/02 02:14:19;;;;;;;12.38;4.40;;;;;;;12.36;83.73;100867.00;5010870;28;20157;-68
2023/01/02 02:16:58;;;;;;;10.85;4.40;;;;;;;12.38;84.02;100870.34;5020595;28;20085;-68
2023/01/02 02:19:33;;;;;;;10.27;4.43;;;;;;;12.40;82.91;100877.34;5023889;28;20026;-69
2023/01/02 02:22:32;;;;;;;11.05;4.32;;;;;;;12.41;83.13;100873.44;5024240;28;20508;-70
2023/01/02 02:25:00;;;;;;;14.32;4.22;;;;;;;12.40;83.83;100868.97;5028571;28;20071;-69
2023/01/02 02:27:49;;;;;;;9.80;4.22;;;;;;;12.44;83.61;100878.47;5028868;28;20050;-70
2023/01/02 02:30:22;;;;;;;9.15;4.18;;;;;;;12.44;83.86;100875.69;5021933;28;20069;-69
2023/01/02 02:33:06;;;;;;;10.05;4.20;;;;;;;12.43;83.75;100876.81;5028558;28;20025;-69
2023/01/02 02:35:49;;;;;;;9.80;4.10;;;;;;;12.43;83.60;100876.81;5029148;28;20462;-69
2023/01/02 02:38:22;;;;;;;12.88;4.30;;;;;;;12.41;84.17;100867.88;5019825;28;20841;-69
2023/01/02 02:40:51;;;;;;;9.75;4.75;;;;;;;12.41;83.67;100875.38;5025074;28;20124;-69
2023/01/02 02:43:39;;;;;;;10.77;4.18;;;;;;;12.45;83.66;100876.53;5024678;28;20045;-69
2023/01/02 02:46:25;;;;;;;12.68;4.78;;;;;;;12.43;83.60;100874.03;5017536;28;20113;-69
2023/01/02 02:49:04;;;;;;;12.02;4.20;;;;;;;12.44;83.19;100867.34;5016409;28;20505;-69
2023/01/02 02:51:36;;;;;;;6.85;3.35;;;;;;;12.43;83.40;100876.81;5022695;28;20057;-70
2023/01/02 02:54:13;;;;;;;12.50;4.10;;;;;;;12.45;83.66;100869.03;5024703;28;20104;-70
2023/01/02 02:56:40;;;;;;;11.40;4.25;;;;;;;12.45;83.18;100873.75;5021235;28;20029;-69
2023/01/02 02:59:06;;;;;;;10.57;4.40;;;;;;;12.45;83.53;100874.59;5019674;28;20060;-68
2023/01/02 03:01:32;;;;;;;9.10;3.67;;;;;;;12.46;83.38;100865.16;5027594;28;20433;-68
2023/01/02 03:03:57;;;;;;;9.70;3.88;;;;;;;12.45;83.66;100865.41;5027337;28;20048;-68
2023/01/02 03:06:32;;;;;;;14.70;4.72;;;;;;;12.46;83.48;100867.94;5027873;28;20141;-68
2023/01/02 03:09:15;;;;;;;11.18;3.83;;;;;;;12.48;83.34;100873.22;5027949;28;20110;-68
2023/01/02 03:12:17;;;;;;;8.52;3.70;;;;;;;12.49;83.50;100870.16;5029084;28;20034;-68
2023/01/02 03:14:55;;;;;;;10.68;3.65;;;;;;;12.46;83.63;100869.88;5026802;28;20032;-68
2023/01/02 03:17:51;;;;;;;11.93;4.07;;;;;;;12.44;83.53;100867.34;5028162;28;20029;-67
2023/01/02 03:20:20;;;;;;;8.98;3.85;;;;;;;12.43;83.81;100865.69;5025350;28;20058;-68
2023/01/02 03:22:50;;;;;;;8.60;3.92;;;;;;;12.43;83.54;100865.69;5029131;28;20047;-68
2023/01/02 03:25:16;;;;;;;13.15;4.50;;;;;;;12.41;83.94;100856.75;5026329;28;20029;-68
2023/01/02 03:27:45;;;;;;;8.50;3.67;;;;;;;12.40;84.00;100857.84;5029999;28;20431;-68
2023/01/02 03:30:16;;;;;;;11.38;4.47;;;;;;;12.38;84.07;100862.84;5025863;28;20120;-68
2023/01/02 03:32:49;;;;;;;9.90;3.63;;;;;;;12.39;84.18;100858.97;5029345;28;20033;-68
2023/01/02 03:35:20;;;;;;;7.45;4.13;;;;;;;12.39;84.43;100869.25;5028084;28;20980;-68
2023/01/02 03:37:50;;;;;;;13.23;4.03;;;;;;;12.40;83.77;100880.13;5029293;28;20044;-69
2023/01/02 03:40:21;;;;;;;6.05;3.30;;;;;;;12.43;83.87;100871.25;5028133;28;20037;-68
2023/01/02 03:43:21;;;;;;;10.65;4.10;;;;;;;12.44;83.72;100878.47;5028483;28;20026;-68
2023/01/02 03:46:09;;;;;;;8.07;3.50;;;;;;;12.45;83.66;100880.16;5026868;28;20045;-68
2023/01/02 03:48:37;;;;;;;14.10;4.10;;;;;;;12.45;83.80;100876.53;5029321;28;20041;-68
2023/01/02 03:51:03;;;;;;;10.57;3.90;;;;;;;12.44;83.67;100884.06;5027800;28;20140;-68
2023/01/02 03:53:32;;;;;;;8.90;3.67;;;;;;;12.44;83.59;100886.00;5026646;28;20129;-68
2023/01/02 03:56:33;;;;;;;6.43;3.40;;;;;;;12.41;83.85;100892.09;5028355;28;20112;-68
2023/01/02 03:59:24;;;;;;;10.15;4.28;;;;;;;12.41;84.02;100884.56;5030286;28;20124;-68
2023/01/02 04:02:00;;;;;;;13.68;4.25;;;;;;;12.40;83.78;100888.47;5026559;28;20029;-68
2023/01/02 04:04:39;;;;;;;12.05;3.97;;;;;;;12.40;83.94;100882.91;5024216;28;20048;-68
2023/01/02 04:07:10;;;;;;;10.30;3.72;;;;;;;12.44;83.85;100886.84;5027617;28;20052;-68
2023/01/02 04:09:38;;;;;;;7.38;3.63;;;;;;;12.45;83.61;100893.25;5024357;28;20037;-68
2023/01/02 04:12:08;;;;;;;10.30;3.88;;;;;;;12.46;83.48;100897.72;5023650;28;20038;-68
2023/01/02 04:14:44;;;;;;;8.40;3.58;;;;;;;12.45;83.86;100905.22;5027180;28;20044;-68
2023/01/02 04:17:13;;;;;;;11.65;4.57;;;;;;;12.42;83.82;100894.63;5021974;28;20072;-67
2023/01/02 04:19:48;;;;;;;7.97;3.55;;;;;;;12.44;84.06;100897.97;5023729;28;20021;-68
2023/01/02 04:22:25;;;;;;;7.90;3.72;;;;;;;12.44;83.85;100900.75;5022074;28;20165;-68
2023/01/02 04:25:00;;;;;;;7.57;3.40;;;;;;;12.42;84.41;100900.19;5026143;28;20120;-68
2023/01/02 04:27:34;;;;;;;8.18;3.70;;;;;;;12.41;84.18;100922.72;5028295;28;20554;-68
2023/01/02 04:30:00;;;;;;;11.05;4.03;;;;;;;12.40;84.60;100915.47;5027380;28;20112;-68
2023/01/02 04:32:39;;;;;;;9.75;3.78;;;;;;;12.41;84.40;100912.41;5027876;28;20160;-67
2023/01/02 04:35:08;;;;;;;7.68;3.78;;;;;;;12.43;84.33;100918.56;5026411;28;20562;-68
2023/01/02 04:37:37;;;;;;;11.35;4.50;;;;;;;12.43;83.72;100912.16;5029952;28;20033;-68
2023/01/02 04:40:18;;;;;;;8.73;4.25;;;;;;;12.44;84.20;100911.88;5034018;28;20037;-68
2023/01/02 04:42:44;;;;;;;7.55;3.22;;;;;;;12.44;84.01;100920.25;5028505;28;20029;-68
2023/01/02 04:45:10;;;;;;;8.48;3.97;;;;;;;12.44;83.93;100917.47;5019399;28;20743;-68
2023/01/02 04:47:36;;;;;;;9.57;3.88;;;;;;;12.44;84.01;100911.88;5031969;28;20038;-68
2023/01/02 04:50:03;;;;;;;9.73;3.60;;;;;;;12.44;83.96;100924.97;5026951;28;20444;-68
2023/01/02 04:52:28;;;;;;;6.75;4.00;;;;;;;12.45;83.86;100933.03;5012075;28;20038;-68
2023/01/02 04:54:53;;;;;;;10.43;4.13;;;;;;;12.46;83.42;100926.41;5009141;28;20018;-68
2023/01/02 04:57:19;;;;;;;9.15;4.03;;;;;;;12.47;83.54;100925.28;5009968;28;20374;-68
2023/01/02 04:59:44;;;;;;;7.15;4.05;;;;;;;12.47;83.47;100932.81;5009263;28;20084;-68
2023/01/02 05:02:09;;;;;;;9.60;4.00;;;;;;;12.44;83.66;100939.72;5012542;28;20392;-68
2023/01/02 05:04:35;;;;;;;9.20;3.60;;;;;;;12.44;83.26;100939.72;5008208;28;20040;-67
2023/01/02 05:07:01;;;;;;;10.40;4.05;;;;;;;12.45;83.24;100941.41;5013198;28;20036;-68
2023/01/02 05:09:27;;;;;;;8.88;3.67;;;;;;;12.45;82.90;100938.63;5011191;28;20129;-68
2023/01/02 05:11:52;;;;;;;9.93;3.78;;;;;;;12.47;83.44;100938.38;5012454;28;20112;-68
2023/01/02 05:14:17;;;;;;;11.95;3.97;;;;;;;12.44;83.00;100942.50;5013006;28;20029;-68
2023/01/02 05:16:42;;;;;;;10.07;3.92;;;;;;;12.45;83.32;100940.56;5002432;28;20065;-68
2023/01/02 05:19:08;;;;;;;8.15;3.25;;;;;;;12.46;83.26;100942.25;5010977;28;20037;-68
2023/01/02 05:24:17;;;;;;;8.10;3.22;;;;;;;12.46;82.77;100943.09;4992605;28;20398;-68
2023/01/02 05:26:42;;;;;;;8.52;3.30;;;;;;;12.48;82.64;100940.03;5005669;28;20038;-69
2023/01/02 05:29:07;;;;;;;7.88;3.20;;;;;;;12.48;82.70;100946.44;5011026;28;20030;-68
2023/01/02 05:31:33;;;;;;;6.25;3.35;;;;;;;12.46;82.79;100957.03;5009442;28;20033;-68
2023/01/02 05:33:58;;;;;;;10.20;3.45;;;;;;;12.46;82.43;100953.41;5004892;28;20503;-68
2023/01/02 05:36:26;;;;;;;11.90;3.50;;;;;;;12.46;82.57;100965.38;5007214;28;20141;-68
2023/01/02 05:38:52;;;;;;;8.85;3.53;;;;;;;12.47;82.83;100966.22;5012218;28;20076;-68
2023/01/02 05:41:18;;;;;;;6.97;3.10;;;;;;;12.48;82.87;100977.06;5011940;28;20425;-68
2023/01/02 05:43:43;;;;;;;5.20;3.22;;;;;;;12.48;82.91;100974.28;5011819;28;20022;-68
2023/01/02 05:46:17;;;;;;;7.68;3.15;;;;;;;12.49;82.64;100983.47;5010156;28;20032;-68
2023/01/02 05:48:43;;;;;;;5.65;2.88;;;;;;;12.51;82.80;100987.69;5011141;28;20025;-68
2023/01/02 05:51:12;;;;;;;8.48;3.20;;;;;;;12.47;82.40;100982.91;5016937;28;20046;-68
2023/01/02 05:53:38;;;;;;;7.85;3.10;;;;;;;12.51;82.28;100998.81;5029786;28;20052;-69
2023/01/02 05:56:11;;;;;;;5.75;3.28;;;;;;;12.49;82.86;100991.81;5031446;28;20021;-67
2023/01/02 05:58:39;;;;;;;4.82;2.75;;;;;;;12.48;82.41;100993.78;5030578;28;20057;-68
2023/01/02 06:01:19;;;;;;;8.45;2.95;;;;;;;12.45;83.25;100996.25;5020609;28;20038;-68
2023/01/02 06:03:46;;;;;;;7.07;3.15;;;;;;;12.46;82.98;100993.22;5021348;28;20074;-68
2023/01/02 06:06:13;;;;;;;9.30;3.35;;;;;;;12.49;82.79;101000.19;5026213;28;20865;-68
2023/01/02 06:08:39;;;;;;;10.93;3.88;;;;;;;12.48;82.95;100996.56;5022167;28;20033;-68
2023/01/02 06:11:05;;;;;;;9.10;2.80;;;;;;;12.49;83.08;101009.38;5023537;28;20183;-68
2023/01/02 06:13:33;;;;;;;7.55;3.33;;;;;;;12.51;82.88;101015.53;5026005;28;20030;-68
2023/01/02 06:15:59;;;;;;;7.13;3.42;;;;;;;12.52;83.24;101010.78;5024807;28;20029;-67
2023/01/02 06:18:26;;;;;;;5.95;3.00;;;;;;;12.50;83.51;101024.16;5022036;28;20043;-67
2023/01/02 06:20:56;;;;;;;9.30;3.70;;;;;;;12.44;84.03;101034.38;5024490;28;20026;-67
2023/01/02 06:23:21;;;;;;;8.88;3.15;;;;;;;12.45;83.95;101040.78;5025057;28;20794;-68
2023/01/02 06:25:46;;;;;;;3.97;2.90;;;;;;;12.42;84.14;101049.69;5023804;28;20096;-68
2023/01/02 06:28:12;;;;;;;4.55;2.25;;;;;;;12.40;84.14;101061.06;5022588;28;20025;-68
2023/01/02 06:30:37;;;;;;;6.82;2.40;;;;;;;12.41;83.56;101079.44;5021080;28;20041;-68
2023/01/02 06:33:02;;;;;;;2.20;1.80;;;;;;;12.38;81.64;101093.03;5021580;28;20155;-68
2023/01/02 06:35:28;;;;;;;1.45;1.35;;;;;;;12.30;80.50;101099.91;5019806;28;20021;-68
2023/01/02 06:37:53;;;;;;;2.08;1.15;;;;;;;12.28;80.04;101096.53;5020592;28;20480;-68
2023/01/02 06:40:18;;;;;;;1.20;1.10;;;;;;;12.27;80.21;101103.22;5019164;28;20044;-68
2023/01/02 06:42:44;;;;;;;2.38;0.93;;;;;;;12.24;79.91;101101.78;5023492;28;20358;-68
2023/01/02 06:45:10;;;;;;;2.00;1.20;;;;;;;12.19;79.80;101115.63;5020551;28;20040;-67
2023/01/02 06:47:35;;;;;;;1.73;0.90;;;;;;;12.17;79.12;101128.09;5020298;28;20562;-67
2023/01/02 06:50:01;;;;;;;2.42;0.90;;;;;;;12.17;78.48;101137.28;5025661;28;20041;-67
2023/01/02 06:52:27;;;;;;;0.95;0.70;;;;;;;12.10;78.32;101144.97;5023348;28;20038;-67
2023/01/02 06:54:53;;;;;;;1.23;0.88;;;;;;;12.14;78.36;101139.75;5016374;28;20040;-67
2023/01/02 06:57:18;;;;;;;0.70;0.70;;;;;;;12.07;77.54;101150.25;5018548;28;20025;-67
2023/01/02 06:59:43;;;;;;;0.73;0.70;;;;;;;12.06;77.37;101146.59;5019066;28;20033;-67
2023/01/02 07:02:10;;;;;;;0.80;0.80;;;;;;;12.06;77.44;101154.09;5020010;28;20444;-68
2023/01/02 07:04:36;;;;;;;1.33;0.80;;;;;;;11.98;76.98;101170.13;5023008;28;20411;-68
2023/01/02 07:07:01;;;;;;;0.95;0.85;;;;;;;11.98;77.72;101175.69;5021479;28;20461;-68
2023/01/02 07:09:27;;;;;;;0.75;0.75;;;;;;;11.92;77.33;101181.44;5018154;28;20053;-68
2023/01/02 07:11:52;;;;;;;1.50;1.02;;;;;;;11.94;77.71;101191.19;5016362;28;20044;-68
2023/01/02 07:14:18;;;;;;;0.80;0.80;;;;;;;11.90;77.52;101201.16;5021671;28;20025;-68
2023/01/02 07:16:43;;;;;;;1.15;1.05;;;;;;;11.88;77.79;101208.91;5018375;28;20017;-68
2023/01/02 07:19:08;;;;;;;1.42;1.20;;;;;;;11.84;77.46;101210.53;5016495;28;20033;-68
2023/01/02 07:21:34;;;;;;;1.17;1.08;;;;;;;11.82;77.93;101218.22;5020566;28;20053;-68
2023/01/02 07:23:59;;;;;;;1.40;1.30;;;;;;;11.84;77.84;101231.94;5020661;28;20033;-68
2023/01/02 07:26:24;;;;;;;2.08;1.30;;;;;;;11.80;77.99;101237.13;5016235;28;20040;-68
2023/01/02 07:28:49;;;;;;;1.73;1.52;;;;;;;11.80;77.76;101239.91;5024197;28;20044;-69
2023/01/02 07:31:17;;;;;;;1.80;1.70;;;;;;;11.78;77.71;101240.13;5026009;28;20033;-69
2023/01/02 07:33:42;;;;;;;3.05;1.70;;;;;;;11.77;77.89;101257.94;5026676;28;20113;-69
2023/01/02 07:36:12;;;;;;;2.30;2.10;;;;;;;11.72;77.46;101260.63;5026295;28;20037;-68
2023/01/02 07:38:38;;;;;;;2.47;2.28;;;;;;;11.73;77.92;101256.75;5018213;28;20037;-69
2023/01/02 07:41:04;;;;;;;2.80;2.60;;;;;;;11.71;77.52;101261.72;5024001;28;20026;-69
2023/01/02 07:43:29;;;;;;;3.35;2.50;;;;;;;11.73;77.71;101262.31;5024782;28;20029;-68
2023/01/02 07:46:02;;;;;;;2.95;2.72;;;;;;;11.72;78.08;101268.97;5026787;28;20120;-68
2023/01/02 07:48:29;;;;;;;3.10;2.80;;;;;;;11.72;77.74;101280.09;5017753;28;20021;-68
2023/01/02 07:51:02;;;;;;;3.50;2.97;;;;;;;11.72;78.11;101288.44;5014621;28;20061;-69
2023/01/02 07:53:27;;;;;;;3.63;3.33;;;;;;;11.72;77.93;101299.56;5021157;28;20034;-69
2023/01/02 07:55:54;;;;;;;4.20;3.75;;;;;;;11.68;77.76;101298.38;5015734;28;20101;-68
2023/01/02 07:58:20;;;;;;;4.40;4.00;;;;;;;11.64;78.11;101302.75;5016758;28;20045;-70
2023/01/02 08:00:45;;;;;;;4.80;4.40;;;;;;;11.63;77.89;101311.31;5020003;28;20037;-68
2023/01/02 08:03:10;;;;;;;4.80;4.40;;;;;;;11.55;78.22;101312.56;5016640;28;20759;-69
2023/01/02 08:05:36;;;;;;;5.07;4.60;;;;;;;11.59;77.98;101324.88;5016326;28;20045;-69
2023/01/02 08:08:01;;;;;;;5.28;4.88;;;;;;;11.57;77.66;101329.84;5024680;28;20041;-69
2023/01/02 08:10:26;;;;;;;5.82;5.35;;;;;;;11.57;77.87;101346.53;5020719;28;20033;-69
2023/01/02 08:12:52;;;;;;;6.07;5.57;;;;;;;11.56;77.85;101347.63;5023875;28;20487;-67
2023/01/02 08:15:17;;;;;;;6.10;5.30;;;;;;;11.60;77.71;101350.78;5023880;28;20029;-68
2023/01/02 08:17:42;;;;;;;7.15;5.38;;;;;;;11.57;77.02;101359.59;5016248;28;20026;-70
2023/01/02 08:20:09;;;;;;;7.53;5.43;;;;;;;11.57;77.23;101359.59;5017093;28;20037;-70
2023/01/02 08:22:34;;;;;;;6.53;4.93;;;;;;;11.59;77.30;101363.78;5021136;28;20044;-69
2023/01/02 08:25:00;;;;;;;5.72;5.22;;;;;;;11.55;76.94;101366.25;5024376;28;20072;-69
2023/01/02 08:27:25;;;;;;;4.88;4.43;;;;;;;11.53;76.86;101370.38;5021682;28;20038;-69
2023/01/02 08:29:50;;;;;;;5.03;4.63;;;;;;;11.52;76.58;101377.03;5023163;28;20029;-69
2023/01/02 08:32:16;;;;;;;4.95;4.50;;;;;;;11.47;76.54;101369.41;5023269;28;20052;-67
2023/01/02 08:34:41;;;;;;;4.75;4.35;;;;;;;11.48;76.61;101373.06;5025661;28;20112;-68
2023/01/02 08:37:06;;;;;;;5.20;4.80;;;;;;;11.47;76.78;101383.28;5027258;28;20045;-68
2023/01/02 08:39:32;;;;;;;4.78;4.35;;;;;;;11.48;76.57;101393.34;5013459;28;20081;-68
2023/01/02 08:41:57;;;;;;;5.13;4.63;;;;;;;11.48;76.36;101401.69;5013781;28;20112;-73
2023/01/02 08:44:23;;;;;;;6.18;3.83;;;;;;;11.73;81.70;101406.06;5017828;28;20041;-75
2023/01/02 08:46:48;;;;;;;5.22;4.68;;;;;;;11.61;76.31;101402.50;5022663;28;20045;-66
2023/01/02 08:49:13;;;;;;;5.53;5.03;;;;;;;11.42;75.90;101404.59;5013855;28;20042;-68
2023/01/02 08:51:39;;;;;;;6.18;4.50;;;;;;;11.43;75.93;101406.28;5022606;28;20061;-68
2023/01/02 08:54:05;;;;;;;5.25;4.72;;;;;;;11.43;76.26;101422.97;5021935;28;20055;-68
2023/01/02 08:56:31;;;;;;;5.25;4.82;;;;;;;11.41;75.90;101425.16;5013393;28;20485;-66
2023/01/02 08:59:01;;;;;;;5.70;5.00;;;;;;;11.34;76.06;101436.41;5008126;28;20052;-66
2023/01/02 09:01:27;;;;;;;4.72;4.28;;;;;;;11.37;76.09;101435.06;5016694;28;20026;-66
2023/01/02 09:03:53;;;;;;;8.30;5.03;;;;;;;11.38;75.90;101433.97;5020494;28;20029;-67
2023/01/02 09:06:19;;;;;;;5.10;4.20;;;;;;;11.38;75.45;101434.81;5016490;28;20790;-64
2023/01/02 09:08:45;;;;;;;4.88;4.30;;;;;;;11.39;75.35;101444.00;5021603;28;20044;-66
2023/01/02 09:11:16;;;;;;;5.10;4.60;;;;;;;11.39;75.55;101449.56;5026928;28;20033;-62
2023/01/02 09:13:42;;;;;;;4.63;4.22;;;;;;;11.38;75.45;101451.50;5024431;28;20033;-64
2023/01/02 09:16:08;;;;;;;7.93;4.20;;;;;;;11.27;75.37;101455.13;5024038;28;20083;-64
2023/01/02 09:18:34;;;;;;;7.57;4.45;;;;;;;11.29;75.71;101466.84;5026454;28;20121;-65
2023/01/02 09:21:00;;;;;;;4.30;3.90;;;;;;;11.23;75.52;101474.22;5026650;28;20060;-65
2023/01/02 09:23:25;;;;;;;6.20;4.00;;;;;;;11.25;75.37;101476.78;5025231;28;20037;-67
2023/01/02 09:25:50;;;;;;;4.03;3.60;;;;;;;11.26;75.47;101489.56;5025786;28;20033;-67
2023/01/02 09:28:16;;;;;;;5.38;3.58;;;;;;;11.29;75.63;101489.09;5031288;28;20029;-67
2023/01/02 09:30:41;;;;;;;7.20;2.88;;;;;;;11.75;83.75;101493.75;5026433;28;20040;-66
2023/01/02 09:33:07;;;;;;;8.50;4.18;;;;;;;11.66;76.39;101499.91;5025888;28;20037;-68
2023/01/02 09:35:33;;;;;;;5.68;3.38;;;;;;;11.58;75.54;101503.06;5026925;28;20029;-67
2023/01/02 09:37:59;;;;;;;4.38;3.20;;;;;;;11.55;75.20;101504.41;5019995;28;20021;-66
2023/01/02 09:40:25;;;;;;;7.60;3.78;;;;;;;11.50;75.08;101502.34;5021772;28;20564;-67
2023/01/02 09:42:51;;;;;;;7.05;3.08;;;;;;;11.47;75.30;101510.34;5024927;28;20034;-67
2023/01/02 09:45:17;;;;;;;6.95;3.80;;;;;;;11.46;75.00;101506.72;5029221;28;20032;-67
2023/01/02 09:47:45;;;;;;;5.22;3.30;;;;;;;11.45;74.90;101506.97;5030343;28;20033;-67
2023/01/02 09:50:17;;;;;;;5.35;3.25;;;;;;;11.41;74.92;101520.50;5022038;28;20037;-67
2023/01/02 09:52:49;;;;;;;4.82;3.60;;;;;;;11.39;74.71;101517.09;5027785;28;20147;-68
2023/01/02 09:55:21;;;;;;;6.38;3.85;;;;;;;11.42;74.24;101526.91;5028541;28;20851;-68
2023/01/02 09:58:13;;;;;;;5.47;3.33;;;;;;;11.46;74.97;101528.94;5016643;28;20052;-66
2023/01/02 10:00:41;;;;;;;4.00;3.05;;;;;;;11.41;74.50;101526.06;5018027;28;20136;-67
2023/01/02 10:03:27;;;;;;;4.32;3.33;;;;;;;11.44;74.80;101520.03;5023716;28;20038;-69
2023/01/02 10:06:11;;;;;;;3.88;3.40;;;;;;;11.41;74.75;101522.44;5029843;28;20041;-67
2023/01/02 10:08:47;;;;;;;6.85;3.55;;;;;;;11.36;74.09;101541.75;5030771;28;20442;-68
2023/01/02 10:11:52;;;;;;;4.20;3.10;;;;;;;11.42;74.52;101543.56;5024609;28;20064;-68
2023/01/02 10:14:43;;;;;;;4.57;3.17;;;;;;;11.34;74.03;101538.38;5021934;28;20040;-67
2023/01/02 10:17:16;;;;;;;5.20;3.75;;;;;;;11.32;73.70;101544.19;5028468;28;20120;-68
2023/01/02 10:19:45;;;;;;;3.67;3.08;;;;;;;11.30;73.85;101541.63;5024367;28;20025;-68
2023/01/02 10:22:16;;;;;;;4.30;3.60;;;;;;;11.23;74.36;101535.34;5028789;28;20040;-67
2023/01/02 10:24:58;;;;;;;5.15;3.45;;;;;;;11.27;73.82;101531.00;5029633;28;20052;-67
2023/01/02 10:27:32;;;;;;;5.35;4.13;;;;;;;11.29;73.90;101533.56;5028996;28;20482;-67
2023/01/02 10:30:06;;;;;;;10.23;4.30;;;;;;;11.28;74.36;101535.50;5028197;28;20022;-67
2023/01/02 10:32:33;;;;;;;6.40;4.40;;;;;;;11.25;73.95;101541.53;5026232;28;20036;-67
2023/01/02 10:35:04;;;;;;;5.15;3.97;;;;;;;11.26;74.46;101551.53;5023271;28;20044;-67
2023/01/02 10:37:30;;;;;;;5.65;4.97;;;;;;;11.25;74.68;101563.75;5029238;28;20038;-67
2023/01/02 10:39:56;;;;;;;5.75;4.38;;;;;;;11.25;74.45;101562.91;5018561;28;20034;-66
2023/01/02 10:42:23;;;;;;;8.65;4.50;;;;;;;11.28;74.73;101554.09;5012163;28;20045;-66
2023/01/02 10:44:48;;;;;;;5.10;4.60;;;;;;;11.30;74.65;101555.53;5028070;28;20424;-66
2023/01/02 10:47:37;;;;;;;7.35;4.57;;;;;;;11.35;75.27;101551.19;5019478;28;20034;-67
2023/01/02 10:50:13;;;;;;;6.60;4.97;;;;;;;11.23;74.86;101549.25;5029313;28;20038;-66
2023/01/02 10:52:45;;;;;;;7.18;5.40;;;;;;;11.26;74.73;101564.59;5024478;28;20116;-69
2023/01/02 10:55:11;;;;;;;5.95;5.18;;;;;;;11.25;75.08;101549.03;5020910;28;20120;-71
2023/01/02 10:57:45;;;;;;;6.60;5.82;;;;;;;11.31;75.23;101560.00;5022270;28;20781;-71
2023/01/02 11:00:16;;;;;;;8.07;6.13;;;;;;;11.24;75.24;101562.06;5028615;28;20052;-69
2023/01/02 11:02:41;;;;;;;8.27;6.30;;;;;;;11.25;74.98;101568.47;5028192;28;20087;-70
2023/01/02 11:05:18;;;;;;;7.00;6.30;;;;;;;11.32;75.28;101572.00;5027239;28;20038;-71
2023/01/02 11:07:47;;;;;;;8.10;6.97;;;;;;;11.32;75.10;101577.53;5027513;28;20029;-71
2023/01/02 11:10:35;;;;;;;7.63;6.82;;;;;;;11.36;75.47;101570.41;5026787;28;20072;-70
2023/01/02 11:13:11;;;;;;;7.70;6.90;;;;;;;11.33;74.98;101578.38;5010848;28;20482;-71
2023/01/02 11:15:48;;;;;;;8.93;7.70;;;;;;;11.33;75.50;101582.00;5029881;28;20052;-73
2023/01/02 11:18:22;;;;;;;9.38;8.10;;;;;;;11.37;75.55;101579.59;5029033;28;20555;-71
2023/01/02 11:20:52;;;;;;;10.07;8.18;;;;;;;11.32;75.20;101577.53;5026884;28;20025;-70
2023/01/02 11:23:21;;;;;;;8.00;7.22;;;;;;;11.31;74.60;101586.94;5025416;28;20104;-68
2023/01/02 11:25:46;;;;;;;9.75;8.35;;;;;;;11.33;74.55;101584.78;5024325;28;20034;-68
2023/01/02 11:28:28;;;;;;;11.15;8.32;;;;;;;11.33;74.35;101597.84;5029947;28;20083;-68
2023/01/02 11:31:09;;;;;;;10.27;8.40;;;;;;;11.37;74.90;101599.06;5029175;28;20457;-66
2023/01/02 11:33:37;;;;;;;10.05;8.07;;;;;;;11.34;74.78;101600.38;5029915;28;20053;-67
2023/01/02 11:36:02;;;;;;;12.85;9.00;;;;;;;11.35;74.66;101595.66;5028931;28;20574;-67